Russell Municipal Airport
KRSL : rendu visible

Aérodrome :











RETROUVEZ-NOUS SUR...

 
LOGIN :

S'inscrire | Disclaimer

   EN    FR    IT 

 









Légende :    VFR   VFR Marginal   IFR   IFR Intensif   IFR Très Intensif
Visi : 
Plafond : 
>= 8 km
>= 3000ft
5 à 8 km
1000 à 3000 ft
1500m à 5 km
500 à 1000 ft
800 à 1500m
200 à 500 ft
< 800m
< 200 ft
Symboles :   Orages  Brouillard  Fortes neiges  Fortes précipitations  Vent > 20 kt






- Altitude de l'aérodrome : 1862 ft


KRSL - Russell Municipal

DERNIER METAR :
  • 081153Z AUTO 31005KT 10SM CLR 09/01 A2980 RMK AO2 SLP079 T00890011 10133 20078 53008

METARs EXPIRÉS :
  • 081053Z AUTO 32005KT 10SM CLR 10/02 A2979 RMK AO2 SLP074 T01000022
  • 080953Z AUTO 35007KT 10SM CLR 09/03 A2978 RMK AO2 SLP070 T00940028
  • 080853Z AUTO 30008KT 10SM CLR 09/03 A2977 RMK AO2 SLP069 T00890033 56005

TAF KRSL
Valide du 08 à 12h jusqu'au 09 à 12h UTC


081120Z 0812/0912 29006KT P6SM FEW250
FM081800 34015G23KT P6SM SKC
FM082100 36018KT P6SM SKC
FM082200 36018G26KT P6SM SKC
FM090100 02014KT P6SM SKC
FM091100 35004KT P6SM FEW150



MET'MAP, la Météo Aéronautique d'un coup d'oeil ! - Copyright ORBIFLY Décembre 2007 - Disclaimer

ORBIFLY MET'MAP TEAM :

Programmation & Développement : Alexandra Zaïnal
Sur une idée originale de : Baudouin d'Aumeries
Assistance à la programmation : Marc-Olivier Méhu
Soutien technique & logistique : Manuel Goepfert

Contact : metmap@orbifly.com




SOURCES & CREDITS :

   NOAA       Earth
Advisory